sim
Sign-in with your pilot id or email,
or register
Callsign
Passwort

Schedule Details

Flight Number: RYR5797 (1)
Departure: Frankfurt Hahn Airport (EDFH) at 15:50
Arrival: Thessaloniki International Airport (LGTS) at 18:25
Route: Ryanair Passenger Schedule. Enter filed route here before submitting Pirep.

Weather Information
Getting current METAR information for EDFH 252120Z 21005KT 180V240 CAVOK 09/05 Q1010
Getting current METAR information for LGTS 252120Z 00000KT CAVOK 15/12 Q1020 NOSIG

Schedule Frequency

Route Map